createdAt,value
2023-08-08T05:00:58.602Z,420.00
2023-08-08T05:01:58.714Z,448.00
2023-08-08T05:02:58.544Z,464.00
2023-08-08T05:03:58.481Z,464.00
2023-08-08T05:04:58.427Z,492.00
2023-08-08T05:05:58.407Z,504.00
2023-08-08T05:06:58.390Z,504.00
2023-08-08T05:07:58.382Z,520.00
2023-08-08T05:08:58.384Z,528.00
2023-08-08T05:09:58.374Z,544.00
2023-08-08T05:10:59.357Z,552.00
2023-08-08T05:12:03.650Z,560.00
2023-08-08T05:12:58.340Z,592.00
2023-08-08T05:13:58.324Z,596.00
2023-08-08T05:14:58.322Z,608.00
2023-08-08T05:15:58.321Z,616.00
2023-08-08T05:16:58.295Z,628.00
2023-08-08T05:17:58.305Z,640.00
2023-08-08T05:18:58.287Z,700.00
2023-08-08T05:19:58.269Z,732.00
2023-08-08T05:20:58.334Z,704.00
2023-08-08T05:21:58.447Z,684.00
2023-08-08T05:23:03.242Z,680.00
2023-08-08T05:23:58.212Z,724.00
2023-08-08T05:24:58.209Z,756.00
2023-08-08T05:25:58.189Z,784.00
2023-08-08T05:26:58.193Z,856.00
2023-08-08T05:27:58.152Z,928.00
2023-08-08T05:28:58.164Z,960.00
2023-08-08T05:29:58.139Z,900.00
2023-08-08T05:30:58.167Z,872.00
2023-08-08T05:31:58.441Z,876.00
2023-08-08T05:32:58.228Z,872.00
2023-08-08T05:34:03.134Z,844.00
2023-08-08T05:34:58.103Z,876.00
2023-08-08T05:35:58.060Z,900.00
2023-08-08T05:37:14.513Z,952.00
2023-08-08T05:37:59.056Z,964.00
2023-08-08T05:38:58.029Z,928.00
2023-08-08T05:39:58.029Z,904.00
2023-08-08T05:40:58.016Z,924.00
2023-08-08T05:41:58.000Z,916.00
2023-08-08T05:42:58.055Z,924.00
2023-08-08T05:43:57.982Z,936.00
2023-08-08T05:45:03.024Z,932.00
2023-08-08T05:45:58.051Z,920.00
2023-08-08T05:46:57.941Z,900.00
2023-08-08T05:47:57.980Z,980.00
2023-08-08T05:48:58.043Z,1036.00
2023-08-08T05:49:57.909Z,1036.00
2023-08-08T05:50:57.898Z,1000.00
2023-08-08T05:51:58.088Z,1020.00
2023-08-08T05:52:57.890Z,1028.00
2023-08-08T05:53:59.621Z,1084.00
2023-08-08T05:54:57.867Z,1012.00
2023-08-08T05:56:02.878Z,1020.00
2023-08-08T05:56:57.849Z,1056.00
2023-08-08T05:57:57.825Z,1084.00
2023-08-08T05:58:57.814Z,1088.00
2023-08-08T05:59:57.806Z,1080.00
2023-08-08T06:00:57.787Z,1088.00
2023-08-08T06:01:57.837Z,1064.00
2023-08-08T06:02:57.804Z,1104.00
2023-08-08T06:03:57.805Z,1176.00
2023-08-08T06:04:57.772Z,1148.00
2023-08-08T06:05:57.761Z,1136.00
2023-08-08T06:07:02.810Z,1212.00
2023-08-08T06:07:57.713Z,1236.00
2023-08-08T06:08:57.699Z,1256.00
2023-08-08T06:09:57.693Z,1276.00
2023-08-08T06:10:57.693Z,1288.00
2023-08-08T06:11:57.861Z,1372.00
2023-08-08T06:12:57.645Z,1488.00
2023-08-08T06:13:57.638Z,1820.00
2023-08-08T06:14:57.637Z,2088.00
2023-08-08T06:15:57.686Z,2208.00
2023-08-08T06:16:57.634Z,2240.00
2023-08-08T06:18:02.658Z,1912.00
2023-08-08T06:18:57.588Z,1584.00
2023-08-08T06:19:57.607Z,1660.00
2023-08-08T06:20:57.603Z,1608.00
2023-08-08T06:21:57.552Z,1732.00
2023-08-08T06:22:57.552Z,1800.00
2023-08-08T06:23:57.536Z,2012.00
2023-08-08T06:24:57.553Z,1752.00
2023-08-08T06:25:57.534Z,1584.00
2023-08-08T06:26:57.508Z,1532.00
2023-08-08T06:27:57.493Z,1508.00
2023-08-08T06:29:02.488Z,1400.00
2023-08-08T06:29:57.483Z,1492.00
2023-08-08T06:30:57.459Z,1552.00
2023-08-08T06:31:57.617Z,1508.00
2023-08-08T06:32:57.466Z,1512.00
2023-08-08T06:33:57.453Z,1724.00
2023-08-08T06:34:57.427Z,1824.00
2023-08-08T06:35:57.396Z,1800.00
2023-08-08T06:36:57.507Z,1684.00
2023-08-08T06:37:57.375Z,1840.00
2023-08-08T06:38:57.381Z,1864.00
2023-08-08T06:40:02.393Z,1924.00
2023-08-08T06:40:57.343Z,2088.00
2023-08-08T06:41:57.772Z,2344.00
2023-08-08T06:42:57.325Z,2600.00
2023-08-08T06:43:57.329Z,3412.00
2023-08-08T06:44:57.301Z,3412.00
2023-08-08T06:45:57.342Z,2108.00
2023-08-08T06:46:57.271Z,1744.00
2023-08-08T06:47:57.311Z,1556.00
2023-08-08T06:48:57.284Z,1572.00
2023-08-08T06:49:57.238Z,1928.00
2023-08-08T06:51:02.259Z,2900.00
2023-08-08T06:51:57.518Z,3060.00
2023-08-08T06:52:57.236Z,3028.00
2023-08-08T06:53:57.222Z,2700.00
2023-08-08T06:54:57.186Z,2280.00
2023-08-08T06:55:57.183Z,2000.00
2023-08-08T06:56:58.762Z,2144.00
2023-08-08T06:57:57.181Z,2184.00
2023-08-08T06:58:57.148Z,2308.00
2023-08-08T06:59:57.141Z,2112.00
2023-08-08T07:00:57.186Z,2048.00
2023-08-08T07:02:02.167Z,2060.00
2023-08-08T07:02:57.917Z,2292.00
2023-08-08T07:03:57.084Z,2072.00
2023-08-08T07:04:57.089Z,1840.00
2023-08-08T07:05:57.062Z,1732.00
2023-08-08T07:06:57.044Z,1576.00
2023-08-08T07:07:57.058Z,1588.00
2023-08-08T07:08:57.144Z,1716.00
2023-08-08T07:09:57.028Z,1736.00
2023-08-08T07:10:57.177Z,1652.00
2023-08-08T07:11:57.050Z,1640.00
2023-08-08T07:13:02.080Z,1648.00
2023-08-08T07:13:56.971Z,1768.00
2023-08-08T07:14:56.981Z,2092.00
2023-08-08T07:15:57.025Z,2444.00
2023-08-08T07:16:56.959Z,2204.00
2023-08-08T07:17:56.978Z,2396.00
2023-08-08T07:18:57.009Z,2592.00
2023-08-08T07:19:56.909Z,2996.00
2023-08-08T07:20:56.891Z,2768.00
2023-08-08T07:21:56.901Z,2436.00
2023-08-08T07:22:56.885Z,2288.00
2023-08-08T07:24:01.899Z,1956.00
2023-08-08T07:24:56.854Z,1768.00
2023-08-08T07:25:56.872Z,1792.00
2023-08-08T07:26:56.854Z,1780.00
2023-08-08T07:27:56.836Z,1692.00
2023-08-08T07:28:56.796Z,1892.00
2023-08-08T07:29:56.792Z,1892.00
2023-08-08T07:30:56.808Z,1912.00
2023-08-08T07:31:56.787Z,2008.00
2023-08-08T07:32:56.862Z,1852.00
2023-08-08T07:33:56.739Z,1888.00
2023-08-08T07:35:01.761Z,1988.00
2023-08-08T07:35:56.747Z,2168.00
2023-08-08T07:36:56.718Z,1992.00
2023-08-08T07:37:56.698Z,2024.00
2023-08-08T07:38:56.694Z,2112.00
2023-08-08T07:39:56.720Z,2452.00
2023-08-08T07:40:56.719Z,2468.00
2023-08-08T07:41:56.750Z,3656.00
2023-08-08T07:42:56.684Z,3736.00
2023-08-08T07:43:56.645Z,3840.00
2023-08-08T07:44:56.640Z,3572.00
2023-08-08T07:46:01.642Z,3568.00
2023-08-08T07:46:56.650Z,3128.00
2023-08-08T07:47:56.655Z,2936.00
2023-08-08T07:48:56.573Z,3096.00
2023-08-08T07:49:56.577Z,3480.00
2023-08-08T07:50:56.552Z,3236.00
2023-08-08T07:51:56.557Z,3588.00
2023-08-08T07:52:56.544Z,3292.00
2023-08-08T07:53:56.560Z,3372.00
2023-08-08T07:54:56.528Z,3484.00
2023-08-08T07:55:56.528Z,3456.00
2023-08-08T07:57:01.532Z,3992.00
2023-08-08T07:57:56.495Z,3964.00
2023-08-08T07:58:56.490Z,4024.00
2023-08-08T07:59:56.458Z,3920.00
2023-08-08T08:00:56.458Z,3908.00
2023-08-08T08:01:56.464Z,3900.00
2023-08-08T08:02:56.444Z,4120.00
2023-08-08T08:03:56.465Z,4204.00
2023-08-08T08:04:56.404Z,4400.00
2023-08-08T08:05:56.448Z,4368.00
2023-08-08T08:06:56.382Z,4676.00
2023-08-08T08:08:01.827Z,4484.00
2023-08-08T08:08:56.385Z,4940.00
2023-08-08T08:09:56.366Z,4252.00
2023-08-08T08:10:56.364Z,4200.00
2023-08-08T08:11:56.372Z,4152.00
2023-08-08T08:12:56.318Z,5020.00
2023-08-08T08:13:56.307Z,4636.00
2023-08-08T08:14:56.307Z,4744.00
2023-08-08T08:15:56.281Z,5196.00
2023-08-08T08:16:56.347Z,6392.00
2023-08-08T08:17:56.271Z,5000.00
2023-08-08T08:19:01.265Z,4832.00
2023-08-08T08:19:56.235Z,4768.00
2023-08-08T08:20:56.237Z,5040.00
2023-08-08T08:21:56.231Z,4800.00
2023-08-08T08:22:56.234Z,4640.00
2023-08-08T08:23:56.206Z,4404.00
2023-08-08T08:24:56.182Z,4444.00
2023-08-08T08:25:56.199Z,4376.00
2023-08-08T08:26:56.162Z,4240.00
2023-08-08T08:27:56.348Z,4408.00
2023-08-08T08:28:56.131Z,4128.00
2023-08-08T08:30:01.156Z,4164.00
2023-08-08T08:30:56.165Z,4404.00
2023-08-08T08:31:56.118Z,4556.00
2023-08-08T08:32:56.159Z,5156.00
2023-08-08T08:33:56.097Z,4992.00
2023-08-08T08:34:56.067Z,5356.00
2023-08-08T08:35:56.054Z,5268.00
2023-08-08T08:36:56.059Z,5544.00
2023-08-08T08:37:56.045Z,4992.00
2023-08-08T08:38:56.017Z,5060.00
2023-08-08T08:39:56.054Z,4896.00
2023-08-08T08:41:01.018Z,4760.00
2023-08-08T08:41:56.012Z,4204.00
2023-08-08T08:42:55.980Z,4132.00
2023-08-08T08:43:56.040Z,4188.00
2023-08-08T08:44:55.958Z,5272.00
2023-08-08T08:45:55.950Z,5188.00
2023-08-08T08:46:55.937Z,5240.00
2023-08-08T08:47:55.967Z,5072.00
2023-08-08T08:48:55.933Z,5000.00
2023-08-08T08:49:55.928Z,4784.00
2023-08-08T08:50:55.890Z,5820.00
2023-08-08T08:52:01.198Z,4824.00
2023-08-08T08:52:55.872Z,4560.00
2023-08-08T08:53:55.882Z,4772.00
2023-08-08T08:54:55.850Z,5120.00
2023-08-08T08:55:55.878Z,5192.00
2023-08-08T08:56:55.837Z,5876.00
2023-08-08T08:57:55.845Z,9624.00
2023-08-08T08:58:55.809Z,6332.00
2023-08-08T08:59:55.894Z,6632.00
2023-08-08T09:00:55.799Z,6256.00
2023-08-08T09:01:55.788Z,6424.00
2023-08-08T09:03:00.903Z,5660.00
2023-08-08T09:03:55.763Z,8952.00
2023-08-08T09:04:55.748Z,13780.00
2023-08-08T09:05:55.745Z,13888.00
2023-08-08T09:06:55.726Z,9248.00
2023-08-08T09:07:55.694Z,6336.00
2023-08-08T09:09:03.383Z,6300.00
2023-08-08T09:09:56.702Z,6800.00
2023-08-08T09:10:55.673Z,5876.00
2023-08-08T09:11:55.719Z,8696.00
2023-08-08T09:12:55.663Z,6368.00
2023-08-08T09:14:00.683Z,5024.00
2023-08-08T09:14:55.643Z,5184.00
2023-08-08T09:15:55.772Z,8984.00
2023-08-08T09:16:55.687Z,5024.00
2023-08-08T09:17:55.637Z,6060.00
2023-08-08T09:18:55.597Z,5044.00
2023-08-08T09:19:55.576Z,4928.00
2023-08-08T09:20:55.547Z,4588.00
2023-08-08T09:21:55.596Z,4784.00
2023-08-08T09:22:55.527Z,4696.00
2023-08-08T09:23:55.563Z,5644.00
2023-08-08T09:25:00.574Z,6740.00
2023-08-08T09:25:55.507Z,6056.00
2023-08-08T09:26:55.483Z,5068.00
2023-08-08T09:27:55.492Z,13984.00
2023-08-08T09:28:55.488Z,6108.00
2023-08-08T09:29:55.519Z,21152.00
2023-08-08T09:30:55.447Z,20768.00
2023-08-08T09:31:55.474Z,33472.00
2023-08-08T09:32:55.478Z,35456.00
2023-08-08T09:33:55.430Z,13740.00
2023-08-08T09:34:55.406Z,39360.00
2023-08-08T09:36:00.433Z,39744.00
2023-08-08T09:36:55.382Z,28640.00
2023-08-08T09:37:55.428Z,7104.00
2023-08-08T09:38:55.384Z,21536.00
2023-08-08T09:39:55.376Z,9892.00
2023-08-08T09:40:55.340Z,7576.00
2023-08-08T09:41:55.384Z,4752.00
2023-08-08T09:42:55.322Z,5872.00
2023-08-08T09:43:55.295Z,5432.00
2023-08-08T09:44:55.281Z,8944.00
2023-08-08T09:45:55.351Z,5072.00
2023-08-08T09:47:00.328Z,5832.00
2023-08-08T09:47:55.364Z,8036.00
2023-08-08T09:48:55.249Z,9992.00
2023-08-08T09:49:55.250Z,5916.00
2023-08-08T09:50:55.237Z,6752.00
2023-08-08T09:51:55.267Z,5920.00
2023-08-08T09:52:55.230Z,9788.00
2023-08-08T09:53:55.186Z,5576.00
2023-08-08T09:54:55.181Z,5524.00
2023-08-08T09:55:55.212Z,4860.00
2023-08-08T09:56:55.201Z,4832.00
2023-08-08T09:58:00.171Z,5444.00
2023-08-08T09:58:55.165Z,8376.00
2023-08-08T09:59:55.193Z,5788.00
2023-08-08T10:00:55.112Z,23776.00
2023-08-08T10:01:55.177Z,7944.00
2023-08-08T10:02:55.175Z,11560.00
2023-08-08T10:03:55.231Z,8344.00
2023-08-08T10:04:56.082Z,9336.00
2023-08-08T10:05:55.084Z,10864.00
2023-08-08T10:06:55.057Z,11440.00
2023-08-08T10:07:55.030Z,7164.00
2023-08-08T10:09:00.068Z,23232.00
2023-08-08T10:09:55.035Z,20064.00
2023-08-08T10:10:55.017Z,9616.00
2023-08-08T10:11:55.007Z,9520.00
2023-08-08T10:12:54.981Z,11668.00
2023-08-08T10:13:54.963Z,12092.00
2023-08-08T10:14:54.981Z,11128.00
2023-08-08T10:15:54.989Z,10948.00
2023-08-08T10:16:54.950Z,31808.00
2023-08-08T10:17:54.950Z,6912.00
2023-08-08T10:18:54.927Z,17376.00
2023-08-08T10:19:59.921Z,7296.00
2023-08-08T10:20:54.957Z,6524.00
2023-08-08T10:21:54.939Z,7820.00
2023-08-08T10:22:55.481Z,8036.00
2023-08-08T10:23:54.937Z,7664.00
2023-08-08T10:24:55.027Z,6340.00
2023-08-08T10:25:54.852Z,6696.00
2023-08-08T10:26:54.816Z,7204.00
2023-08-08T10:27:54.801Z,7164.00
2023-08-08T10:28:56.219Z,8324.00
2023-08-08T10:29:54.791Z,7008.00
2023-08-08T10:30:59.817Z,6752.00
2023-08-08T10:31:54.868Z,6972.00
2023-08-08T10:32:54.802Z,7236.00
2023-08-08T10:33:54.743Z,9300.00
2023-08-08T10:34:55.192Z,17316.00
2023-08-08T10:35:54.720Z,17056.00
2023-08-08T10:36:54.727Z,17120.00
2023-08-08T10:37:54.792Z,14892.00
2023-08-08T10:38:54.705Z,14920.00
2023-08-08T10:39:54.794Z,13372.00
2023-08-08T10:40:55.576Z,6080.00
2023-08-08T10:41:59.853Z,5212.00
2023-08-08T10:42:54.647Z,7940.00
2023-08-08T10:43:54.644Z,6876.00
2023-08-08T10:44:54.648Z,17696.00
2023-08-08T10:46:07.889Z,10020.00
2023-08-08T10:46:55.105Z,30080.00
2023-08-08T10:47:54.588Z,19168.00
2023-08-08T10:48:54.597Z,10680.00
2023-08-08T10:49:54.563Z,12652.00
2023-08-08T10:50:54.608Z,11592.00
2023-08-08T10:51:54.551Z,10936.00
2023-08-08T10:52:59.573Z,30112.00
2023-08-08T10:53:54.623Z,9984.00
2023-08-08T10:54:54.508Z,11000.00
2023-08-08T10:55:54.521Z,9108.00
2023-08-08T10:56:54.486Z,8048.00
2023-08-08T10:57:54.486Z,9068.00
2023-08-08T10:58:54.503Z,8204.00
2023-08-08T10:59:54.457Z,7628.00
2023-08-08T11:00:54.492Z,6964.00
2023-08-08T11:01:54.450Z,14932.00
2023-08-08T11:02:54.546Z,8044.00
2023-08-08T11:03:59.448Z,10204.00
2023-08-08T11:04:54.431Z,10164.00
2023-08-08T11:05:54.388Z,15492.00
2023-08-08T11:06:54.518Z,24384.00
2023-08-08T11:07:54.398Z,19520.00
2023-08-08T11:08:54.368Z,21920.00
2023-08-08T11:09:54.334Z,19808.00
2023-08-08T11:10:54.331Z,14804.00
2023-08-08T11:11:54.328Z,10592.00
2023-08-08T11:12:54.345Z,12632.00
2023-08-08T11:13:54.301Z,13468.00
2023-08-08T11:14:59.322Z,13356.00
2023-08-08T11:15:54.329Z,12876.00
2023-08-08T11:16:54.270Z,15800.00
2023-08-08T11:17:54.319Z,16832.00
2023-08-08T11:18:54.244Z,12652.00
2023-08-08T11:19:54.238Z,13568.00
2023-08-08T11:21:05.312Z,16704.00
2023-08-08T11:21:55.255Z,31264.00
2023-08-08T11:22:54.317Z,32096.00
2023-08-08T11:23:54.206Z,50976.00
2023-08-08T11:24:54.188Z,35808.00
2023-08-08T11:26:54.178Z,23296.00
2023-08-08T11:27:54.141Z,13904.00
2023-08-08T11:28:54.150Z,19328.00
2023-08-08T11:29:54.141Z,12448.00
2023-08-08T11:30:54.146Z,14312.00
2023-08-08T11:31:54.158Z,11548.00
2023-08-08T11:33:54.081Z,12572.00
2023-08-08T11:34:54.064Z,12176.00
2023-08-08T11:35:54.064Z,12128.00
2023-08-08T11:36:59.071Z,10644.00
2023-08-08T11:37:54.057Z,10496.00
2023-08-08T11:38:54.050Z,9804.00
2023-08-08T11:39:54.025Z,9732.00
2023-08-08T11:40:54.028Z,8796.00
2023-08-08T11:41:53.996Z,8808.00
2023-08-08T11:42:54.003Z,9456.00
2023-08-08T11:43:53.990Z,9756.00
2023-08-08T11:44:53.972Z,11072.00
2023-08-08T11:45:53.973Z,11416.00
2023-08-08T11:46:54.041Z,11472.00
2023-08-08T11:47:59.005Z,13468.00
2023-08-08T11:48:53.925Z,11304.00
2023-08-08T11:49:53.916Z,14660.00
2023-08-08T11:50:53.903Z,31456.00
2023-08-08T11:51:53.884Z,18624.00
2023-08-08T11:52:53.871Z,20768.00
2023-08-08T11:53:53.924Z,30432.00
2023-08-08T11:54:53.930Z,34880.00
2023-08-08T11:55:53.851Z,44352.00
2023-08-08T11:56:53.840Z,31488.00
2023-08-08T11:57:53.813Z,11696.00
2023-08-08T11:58:58.831Z,12988.00
2023-08-08T11:59:53.793Z,29280.00
2023-08-08T12:00:53.870Z,55264.00
2023-08-08T12:01:53.774Z,28480.00
2023-08-08T12:02:53.986Z,44832.00
2023-08-08T12:03:53.827Z,45152.00
2023-08-08T12:04:53.762Z,57984.00
2023-08-08T12:05:53.726Z,63200.00
2023-08-08T12:06:53.725Z,53536.00
2023-08-08T12:07:53.731Z,16896.00
2023-08-08T12:08:53.703Z,53984.00
2023-08-08T12:09:58.813Z,16032.00
2023-08-08T12:10:54.388Z,50624.00
2023-08-08T12:11:53.686Z,11580.00
2023-08-08T12:12:53.673Z,79264.00
2023-08-08T12:13:53.691Z,66688.00
2023-08-08T12:15:55.319Z,48800.00
2023-08-08T12:16:53.679Z,44032.00
2023-08-08T12:17:53.640Z,28800.00
2023-08-08T12:18:53.602Z,50752.00
2023-08-08T12:19:53.580Z,52832.00
2023-08-08T12:20:58.627Z,70336.00
2023-08-08T12:21:53.580Z,58464.00
2023-08-08T12:22:53.632Z,52544.00
2023-08-08T12:23:53.539Z,40864.00
2023-08-08T12:24:53.514Z,25664.00
2023-08-08T12:25:53.636Z,13700.00
2023-08-08T12:26:53.518Z,12856.00
2023-08-08T12:27:53.521Z,25792.00
2023-08-08T12:28:53.486Z,17664.00
2023-08-08T12:29:53.476Z,11436.00
2023-08-08T12:30:53.480Z,12880.00
2023-08-08T12:31:53.455Z,16544.00
2023-08-08T12:32:53.472Z,73472.00
2023-08-08T12:33:58.445Z,93408.00
2023-08-08T12:34:53.458Z,76064.00
2023-08-08T12:35:53.430Z,38176.00
2023-08-08T12:36:53.409Z,42272.00
2023-08-08T12:37:53.389Z,10672.00
2023-08-08T12:38:53.370Z,20096.00
2023-08-08T12:39:53.361Z,11096.00
2023-08-08T12:40:53.370Z,9368.00
2023-08-08T12:41:53.400Z,13196.00
2023-08-08T12:42:53.325Z,11856.00
2023-08-08T12:43:53.321Z,9092.00
2023-08-08T12:44:53.308Z,8164.00
2023-08-08T12:45:53.323Z,8444.00
2023-08-08T12:46:58.658Z,8744.00
2023-08-08T12:47:53.338Z,8200.00
2023-08-08T12:48:53.290Z,6224.00
2023-08-08T12:49:53.253Z,4980.00
2023-08-08T12:50:53.264Z,6608.00
2023-08-08T12:51:53.239Z,7664.00
2023-08-08T12:52:53.218Z,8896.00
2023-08-08T12:53:53.198Z,7760.00
2023-08-08T12:54:53.200Z,6188.00
2023-08-08T12:55:53.234Z,5848.00
2023-08-08T12:56:53.174Z,5648.00
2023-08-08T12:57:53.296Z,6220.00
2023-08-08T12:58:53.157Z,7696.00
2023-08-08T12:59:58.205Z,8448.00
2023-08-08T13:00:53.174Z,8840.00
2023-08-08T13:01:53.157Z,7652.00
2023-08-08T13:02:53.194Z,5788.00
2023-08-08T13:04:16.179Z,4980.00
2023-08-08T13:04:54.126Z,4796.00
2023-08-08T13:05:53.088Z,5432.00
2023-08-08T13:06:53.132Z,5668.00
2023-08-08T13:07:53.074Z,5652.00
2023-08-08T13:08:53.050Z,6128.00
2023-08-08T13:09:53.052Z,6588.00
2023-08-08T13:10:53.027Z,6532.00
2023-08-08T13:11:53.044Z,6140.00
2023-08-08T13:12:58.082Z,6696.00
2023-08-08T13:13:53.011Z,6916.00
2023-08-08T13:14:52.993Z,6400.00
2023-08-08T13:15:52.963Z,6620.00
2023-08-08T13:16:52.955Z,7040.00
2023-08-08T13:17:52.962Z,7312.00
2023-08-08T13:18:52.945Z,6472.00
2023-08-08T13:19:52.964Z,5728.00
2023-08-08T13:20:52.915Z,6560.00
2023-08-08T13:21:52.895Z,6580.00
2023-08-08T13:22:52.896Z,7064.00
2023-08-08T13:23:57.924Z,7588.00
2023-08-08T13:24:52.865Z,6940.00
2023-08-08T13:25:52.897Z,5828.00
2023-08-08T13:26:52.851Z,6280.00
2023-08-08T13:27:52.831Z,7044.00
2023-08-08T13:28:52.945Z,6920.00
2023-08-08T13:29:52.812Z,6784.00
2023-08-08T13:30:52.843Z,6988.00
2023-08-08T13:31:52.801Z,6800.00
2023-08-08T13:32:52.859Z,6616.00
2023-08-08T13:33:52.773Z,6964.00
2023-08-08T13:34:57.777Z,7424.00
2023-08-08T13:35:52.749Z,7384.00
2023-08-08T13:36:52.737Z,7388.00
2023-08-08T13:37:52.741Z,8100.00
2023-08-08T13:38:55.086Z,7752.00
2023-08-08T13:39:52.694Z,7780.00
2023-08-08T13:40:52.689Z,7440.00
2023-08-08T13:41:52.700Z,6380.00
2023-08-08T13:42:52.701Z,6424.00
2023-08-08T13:43:52.708Z,5836.00
2023-08-08T13:44:52.960Z,6724.00
2023-08-08T13:45:57.798Z,7272.00
2023-08-08T13:46:52.664Z,7880.00
2023-08-08T13:47:52.663Z,6800.00
2023-08-08T13:48:52.624Z,6724.00
2023-08-08T13:49:52.594Z,6760.00
2023-08-08T13:50:52.588Z,6976.00
2023-08-08T13:51:52.936Z,6844.00
2023-08-08T13:52:52.569Z,5560.00
2023-08-08T13:53:52.555Z,5844.00
2023-08-08T13:54:52.590Z,5148.00
2023-08-08T13:55:52.531Z,5448.00
2023-08-08T13:56:57.556Z,5988.00
2023-08-08T13:57:52.528Z,6108.00
2023-08-08T13:58:52.490Z,6716.00
2023-08-08T13:59:52.502Z,7340.00
2023-08-08T14:00:52.497Z,7508.00
2023-08-08T14:01:52.512Z,7248.00
2023-08-08T14:02:52.550Z,7160.00
2023-08-08T14:03:52.536Z,5540.00
2023-08-08T14:04:52.430Z,5100.00
2023-08-08T14:05:52.451Z,4640.00
2023-08-08T14:06:52.426Z,5020.00
2023-08-08T14:07:57.422Z,4936.00
2023-08-08T14:08:52.398Z,5636.00
2023-08-08T14:09:52.394Z,5300.00
2023-08-08T14:10:52.390Z,6364.00
2023-08-08T14:11:52.349Z,6356.00
2023-08-08T14:12:52.351Z,5016.00
2023-08-08T14:13:52.329Z,4376.00
2023-08-08T14:14:52.327Z,5100.00
2023-08-08T14:15:52.337Z,5240.00
2023-08-08T14:16:53.830Z,5488.00
2023-08-08T14:17:52.330Z,5596.00
2023-08-08T14:18:57.302Z,5808.00
2023-08-08T14:19:52.273Z,5536.00
2023-08-08T14:20:52.288Z,5448.00
2023-08-08T14:21:52.262Z,5460.00
2023-08-08T14:22:52.225Z,5188.00
2023-08-08T14:23:52.237Z,5440.00
2023-08-08T14:24:52.241Z,6200.00
2023-08-08T14:25:52.211Z,6516.00
2023-08-08T14:26:52.198Z,6880.00
2023-08-08T14:27:52.178Z,5396.00
2023-08-08T14:28:52.168Z,5108.00
2023-08-08T14:29:57.192Z,4832.00
2023-08-08T14:30:52.144Z,4664.00
2023-08-08T14:32:00.521Z,4672.00
2023-08-08T14:32:53.149Z,5072.00
2023-08-08T14:33:52.112Z,4736.00
2023-08-08T14:34:52.427Z,4568.00
2023-08-08T14:35:52.093Z,4076.00
2023-08-08T14:36:52.084Z,3144.00
2023-08-08T14:37:52.086Z,2572.00
2023-08-08T14:38:52.147Z,2312.00
2023-08-08T14:39:52.118Z,2688.00
2023-08-08T14:40:57.100Z,2332.00
2023-08-08T14:41:52.017Z,2096.00
2023-08-08T14:42:52.678Z,2168.00
2023-08-08T14:43:52.029Z,1960.00
2023-08-08T14:44:51.987Z,1388.00
2023-08-08T14:45:51.985Z,1328.00
2023-08-08T14:46:51.969Z,1412.00
2023-08-08T14:47:52.024Z,1512.00
2023-08-08T14:48:51.985Z,1416.00
2023-08-08T14:49:51.929Z,1344.00
2023-08-08T14:50:51.923Z,1380.00
2023-08-08T14:51:56.936Z,1372.00
2023-08-08T14:52:51.923Z,1304.00
2023-08-08T14:53:51.908Z,996.00
2023-08-08T14:54:51.896Z,928.00
2023-08-08T14:55:51.899Z,1212.00
2023-08-08T14:56:51.862Z,1388.00
2023-08-08T14:57:51.872Z,1424.00
2023-08-08T14:58:51.842Z,1528.00
2023-08-08T14:59:51.830Z,1764.00
2023-08-08T15:00:51.838Z,2024.00
2023-08-08T15:01:51.881Z,2016.00
2023-08-08T15:02:56.854Z,1772.00
2023-08-08T15:03:51.818Z,1648.00
2023-08-08T15:04:53.055Z,1536.00
2023-08-08T15:05:51.769Z,1652.00
2023-08-08T15:06:51.753Z,1812.00
2023-08-08T15:07:51.774Z,2028.00
2023-08-08T15:08:51.730Z,1932.00
2023-08-08T15:09:51.710Z,2272.00
2023-08-08T15:10:51.752Z,2260.00
2023-08-08T15:11:51.724Z,2824.00
2023-08-08T15:12:51.685Z,2984.00
2023-08-08T15:13:56.680Z,2964.00
2023-08-08T15:14:51.701Z,2352.00
2023-08-08T15:15:51.692Z,2308.00
2023-08-08T15:16:51.646Z,2676.00
2023-08-08T15:17:51.635Z,2884.00
2023-08-08T15:18:51.611Z,2416.00
2023-08-08T15:19:51.589Z,2024.00
2023-08-08T15:20:51.614Z,2012.00
2023-08-08T15:21:51.591Z,1952.00
2023-08-08T15:22:51.567Z,2136.00
2023-08-08T15:23:51.554Z,2384.00
2023-08-08T15:24:56.559Z,2600.00
2023-08-08T15:25:51.542Z,3084.00
2023-08-08T15:26:51.539Z,2916.00
2023-08-08T15:27:51.495Z,3404.00
2023-08-08T15:28:51.489Z,4232.00
2023-08-08T15:29:51.507Z,4320.00
2023-08-08T15:30:51.482Z,3236.00
2023-08-08T15:31:51.457Z,2892.00
2023-08-08T15:32:51.512Z,3212.00
2023-08-08T15:33:51.440Z,3816.00
2023-08-08T15:34:51.429Z,3400.00
2023-08-08T15:35:56.574Z,3372.00
2023-08-08T15:36:51.406Z,3700.00
2023-08-08T15:37:51.405Z,4184.00
2023-08-08T15:38:51.382Z,4264.00
2023-08-08T15:39:51.376Z,4392.00
2023-08-08T15:40:51.380Z,3552.00
2023-08-08T15:41:51.357Z,3364.00
2023-08-08T15:42:51.344Z,3760.00
2023-08-08T15:43:51.320Z,3604.00
2023-08-08T15:44:51.317Z,2804.00
2023-08-08T15:45:51.318Z,2876.00
2023-08-08T15:46:56.394Z,2860.00
2023-08-08T15:47:51.320Z,2456.00
2023-08-08T15:48:51.260Z,2260.00
2023-08-08T15:49:51.288Z,2416.00
2023-08-08T15:50:51.254Z,2108.00
2023-08-08T15:51:51.352Z,1776.00
2023-08-08T15:52:51.222Z,1288.00
2023-08-08T15:53:51.224Z,1376.00
2023-08-08T15:54:51.247Z,1220.00
2023-08-08T15:55:51.258Z,1212.00
2023-08-08T15:56:51.181Z,1020.00
2023-08-08T15:57:56.204Z,1360.00
2023-08-08T15:58:51.162Z,2160.00
2023-08-08T15:59:51.138Z,2332.00
2023-08-08T16:00:51.159Z,2188.00
2023-08-08T16:01:51.115Z,2088.00
2023-08-08T16:02:51.302Z,1988.00
2023-08-08T16:03:51.124Z,1868.00
2023-08-08T16:04:51.151Z,1384.00
2023-08-08T16:05:51.073Z,1252.00
2023-08-08T16:06:51.079Z,1356.00
2023-08-08T16:07:51.086Z,1304.00
2023-08-08T16:08:56.082Z,1056.00
2023-08-08T16:09:51.055Z,852.00
2023-08-08T16:10:51.054Z,844.00
2023-08-08T16:11:51.006Z,868.00
2023-08-08T16:12:51.017Z,920.00
2023-08-08T16:13:51.003Z,1280.00
2023-08-08T16:14:51.007Z,1384.00
2023-08-08T16:15:50.962Z,1864.00
2023-08-08T16:16:50.985Z,2100.00
2023-08-08T16:17:51.004Z,2052.00
2023-08-08T16:18:50.944Z,2368.00
2023-08-08T16:19:55.973Z,2052.00
2023-08-08T16:20:50.928Z,1732.00
2023-08-08T16:21:50.902Z,1404.00
2023-08-08T16:22:50.894Z,952.00
2023-08-08T16:23:50.910Z,928.00
2023-08-08T16:24:50.861Z,1456.00
2023-08-08T16:25:50.892Z,1884.00
2023-08-08T16:26:50.865Z,2112.00
2023-08-08T16:27:50.836Z,1892.00
2023-08-08T16:28:50.816Z,1852.00
2023-08-08T16:29:50.831Z,1456.00
2023-08-08T16:30:55.843Z,1384.00
2023-08-08T16:31:50.812Z,1152.00
2023-08-08T16:32:50.834Z,928.00
2023-08-08T16:33:50.775Z,844.00
2023-08-08T16:34:50.749Z,808.00
2023-08-08T16:35:50.757Z,952.00
2023-08-08T16:36:50.760Z,744.00
2023-08-08T16:37:50.762Z,596.00
2023-08-08T16:38:52.216Z,548.00
2023-08-08T16:39:50.812Z,616.00
2023-08-08T16:40:50.725Z,692.00
2023-08-08T16:41:55.699Z,684.00
2023-08-08T16:42:50.670Z,536.00
2023-08-08T16:43:50.656Z,500.00
2023-08-08T16:44:50.637Z,560.00
2023-08-08T16:45:50.650Z,536.00
2023-08-08T16:46:50.766Z,656.00
2023-08-08T16:47:50.610Z,980.00
2023-08-08T16:48:52.227Z,1144.00
2023-08-08T16:49:50.600Z,1136.00
2023-08-08T16:50:50.584Z,1032.00
2023-08-08T16:51:50.573Z,1004.00
2023-08-08T16:52:55.584Z,788.00
2023-08-08T16:53:50.555Z,764.00
2023-08-08T16:54:53.011Z,788.00
2023-08-08T16:55:50.575Z,744.00
2023-08-08T16:56:50.515Z,716.00
2023-08-08T16:57:50.508Z,804.00
2023-08-08T16:58:50.490Z,836.00
2023-08-08T16:59:50.529Z,772.00
2023-08-08T17:00:52.197Z,700.00
2023-08-08T17:01:50.469Z,728.00
2023-08-08T17:02:50.468Z,868.00
2023-08-08T17:03:55.527Z,872.00
2023-08-08T17:04:50.445Z,716.00
2023-08-08T17:05:50.425Z,624.00
2023-08-08T17:06:50.407Z,640.00
2023-08-08T17:07:50.398Z,732.00